Marriottsville, Maryland
Current Conditions -  °F | °C
As of 4:54 PM on Friday 31 Oct 2014 (Local Time) from KBWI Reporting Station
Broken Clouds Broken Clouds  
Wind Chill: 53°   Ceiling: 5000
Heat Index: 53°   Visibility: 10mi
Dew Point: 35°   Wind: 7mph
Humidity: 50%   Direction: 100°E
Pressure: 29.86"   Gusts: NA
Location:  39.32°N, 76.92°W
Report Text: KBWI 312054Z 10006KT 10SM BKN050 12/02 A2986 RMK AO2 SLP113 T01170017 56015
Loading
Personal Weather Stations






























Interactive Weather Map
Tropical Storm Tracking
New forecast layout! Learn more

10-Day Weather Forecast

Advertisements
Track Severe Weather on mobile